Time;durP1;ratioP1;P1;durP2;ratioP2;P2;SDS_P1;SDS_P2;PMS_P1;PMS_P2;Temp;Humidity;BMP_temperature;BMP_pressure;BME280_temperature;BME280_humidity;BME280_pressure;Samples;Min_cycle;Max_cycle;Signal;HPM_P1;HPM_P2
2024/04/13 00:03:09;;;;;;;20.60;16.80;;;;;;;8.77;90.07;100270.00;450917;1238;139307;-58
2024/04/13 00:13:15;;;;;;;20.80;17.10;;;;;;;8.99;90.70;100269.83;449151;1235;140314;-59
2024/04/13 00:23:18;;;;;;;19.20;15.80;;;;;;;9.27;91.52;100265.21;450907;1238;139377;-59
2024/04/13 00:33:21;;;;;;;18.20;15.30;;;;;;;9.49;91.65;100260.02;450914;1235;139387;-58
2024/04/13 00:43:25;;;;;;;21.30;16.80;;;;;;;9.70;92.25;100254.78;450903;1235;140194;-59
2024/04/13 00:53:33;;;;;;;16.60;14.90;;;;;;;9.89;92.53;100248.61;450730;1235;139326;-59
2024/04/13 01:03:38;;;;;;;18.50;14.50;;;;;;;10.06;93.00;100243.38;451556;1235;140318;-58
2024/04/13 01:13:43;;;;;;;17.30;13.90;;;;;;;10.20;93.25;100233.73;450354;1237;140194;-63
2024/04/13 01:23:54;;;;;;;16.90;14.00;;;;;;;10.34;93.68;100230.39;450725;1235;139770;-63
2024/04/13 01:33:58;;;;;;;17.50;14.10;;;;;;;10.48;93.83;100231.96;447942;1235;2332096;-64
2024/04/13 01:44:01;;;;;;;13.70;12.20;;;;;;;10.59;94.10;100230.66;448630;1238;140954;-63
2024/04/13 01:54:05;;;;;;;13.00;11.40;;;;;;;10.66;94.19;100239.06;449990;1234;140106;-62
2024/04/13 02:04:08;;;;;;;15.60;11.50;;;;;;;10.72;94.48;100231.03;449309;1236;139520;-64
2024/04/13 02:14:14;;;;;;;10.30;9.20;;;;;;;10.82;94.91;100231.53;449507;1238;140301;-64
2024/04/13 02:24:20;;;;;;;12.60;10.10;;;;;;;10.88;94.82;100229.08;449422;1238;139208;-64
2024/04/13 02:34:24;;;;;;;12.70;9.10;;;;;;;10.98;94.54;100229.46;448941;1236;140267;-64
2024/04/13 02:44:29;;;;;;;10.40;9.40;;;;;;;11.06;94.36;100231.27;448930;1238;139169;-59
2024/04/13 02:54:33;;;;;;;14.70;10.90;;;;;;;11.10;94.51;100223.35;448675;1238;139768;-59
2024/04/13 03:04:39;;;;;;;13.30;10.20;;;;;;;11.12;94.81;100222.57;449387;1238;140068;-56
2024/04/13 03:14:45;;;;;;;11.10;8.40;;;;;;;11.13;94.74;100221.95;448824;1235;139344;-56
2024/04/13 03:24:48;;;;;;;10.20;8.70;;;;;;;11.15;94.70;100221.15;449068;1238;140458;-59
2024/04/13 03:34:53;;;;;;;11.60;8.70;;;;;;;11.19;94.92;100219.15;448550;1235;140289;-59
2024/04/13 03:44:57;;;;;;;13.00;8.20;;;;;;;11.20;94.60;100214.03;449103;1237;139741;-55
2024/04/13 03:55:01;;;;;;;10.90;8.00;;;;;;;11.16;94.19;100216.38;448999;1236;139666;-57
2024/04/13 04:05:07;;;;;;;7.80;5.80;;;;;;;11.17;94.37;100224.03;450432;1236;139833;-57
2024/04/13 04:15:10;;;;;;;9.40;6.70;;;;;;;11.25;94.53;100226.02;450061;1238;139511;-57
2024/04/13 04:25:14;;;;;;;7.80;5.90;;;;;;;11.37;94.91;100231.86;449599;1237;139951;-64
2024/04/13 04:35:17;;;;;;;7.40;6.00;;;;;;;11.48;95.06;100232.77;449377;1236;139974;-64
2024/04/13 04:45:21;;;;;;;9.10;5.80;;;;;;;11.66;95.30;100230.71;448700;1238;138976;-65
2024/04/13 04:55:27;;;;;;;8.30;6.90;;;;;;;11.94;95.30;100235.72;448429;1236;142647;-64
2024/04/13 05:05:31;;;;;;;7.70;6.80;;;;;;;12.19;94.56;100245.38;449108;1237;140357;-58
2024/04/13 05:15:35;;;;;;;6.40;5.60;;;;;;;12.28;93.83;100245.16;449237;1237;139148;-59
2024/04/13 05:25:40;;;;;;;6.30;5.30;;;;;;;12.76;94.70;100245.53;450472;1238;139398;-60
2024/04/13 05:35:48;;;;;;;7.00;5.40;;;;;;;13.79;93.30;100243.92;449258;1238;139528;-59
2024/04/13 05:45:51;;;;;;;5.60;5.10;;;;;;;17.84;96.54;100233.23;449532;1235;139507;-60
2024/04/13 05:56:03;;;;;;;5.80;4.80;;;;;;;24.22;84.91;100218.73;449241;1235;139463;-60
2024/04/13 06:06:11;;;;;;;9.40;4.20;;;;;;;28.79;66.46;100211.87;448250;1238;139077;-61
2024/04/13 06:16:16;;;;;;;8.80;4.90;;;;;;;30.08;55.13;100200.20;448618;1235;138872;-65
2024/04/13 06:26:20;;;;;;;5.40;4.90;;;;;;;29.50;50.70;100203.84;448772;1235;138909;-65
2024/04/13 06:36:23;;;;;;;5.80;5.20;;;;;;;30.44;49.48;100202.95;448901;1238;139055;-59
2024/04/13 06:46:27;;;;;;;7.30;4.80;;;;;;;34.35;44.45;100202.67;448647;1238;138368;-60
2024/04/13 06:56:31;;;;;;;5.00;4.10;;;;;;;37.94;40.46;100200.90;451088;1237;139613;-60
2024/04/13 07:06:36;;;;;;;5.20;4.40;;;;;;;40.99;35.72;100203.84;448456;1238;140291;-60
2024/04/13 07:16:39;;;;;;;5.70;4.50;;;;;;;41.88;31.91;100197.46;449017;1233;138920;-61
2024/04/13 07:26:43;;;;;;;7.30;4.80;;;;;;;42.58;29.65;100197.70;449722;1237;139894;-60
2024/04/13 07:36:47;;;;;;;9.90;4.80;;;;;;;42.21;28.23;100195.00;449487;1235;138860;-58
2024/04/13 07:46:53;;;;;;;8.70;5.20;;;;;;;41.09;27.29;100188.73;450360;1235;138566;-57
2024/04/13 07:56:57;;;;;;;10.90;4.60;;;;;;;42.79;27.12;100184.00;448618;1234;139770;-55
2024/04/13 08:07:00;;;;;;;10.50;4.90;;;;;;;42.28;25.87;100187.73;448473;1237;138536;-55
2024/04/13 08:17:04;;;;;;;5.20;4.50;;;;;;;40.20;25.47;100184.96;449538;1235;139050;-59
2024/04/13 08:27:07;;;;;;;11.30;5.90;;;;;;;36.73;27.76;100171.14;450026;1234;138696;-57
2024/04/13 08:37:11;;;;;;;8.40;5.70;;;;;;;35.76;28.54;100167.21;451103;1235;138552;-57
2024/04/13 08:47:18;;;;;;;7.10;5.20;;;;;;;32.78;29.83;100170.27;449647;1234;139045;-58
2024/04/13 08:57:25;;;;;;;8.20;4.20;;;;;;;30.14;32.21;100154.21;451124;1236;138903;-56
2024/04/13 09:07:30;;;;;;;4.90;3.60;;;;;;;28.18;33.78;100145.38;451033;1234;139201;-57
2024/04/13 09:17:37;;;;;;;7.20;3.80;;;;;;;26.31;35.45;100144.10;451025;1237;138519;-57
2024/04/13 09:27:40;;;;;;;6.80;3.40;;;;;;;25.59;36.96;100153.27;449346;1233;138287;-59
2024/04/13 09:37:46;;;;;;;6.00;2.80;;;;;;;25.55;37.49;100149.77;448610;1238;139079;-59
2024/04/13 09:47:53;;;;;;;8.00;3.00;;;;;;;25.37;37.66;100140.83;449587;1237;139449;-56
2024/04/13 09:57:58;;;;;;;6.60;2.80;;;;;;;24.87;38.33;100140.48;449714;1237;138309;-55
2024/04/13 10:08:03;;;;;;;7.30;3.20;;;;;;;24.37;38.93;100121.48;449416;1237;138496;-59
2024/04/13 10:18:07;;;;;;;6.40;2.80;;;;;;;23.90;38.85;100122.45;449114;1234;139168;-58
2024/04/13 10:28:12;;;;;;;3.60;2.70;;;;;;;23.84;39.26;100121.17;449715;1237;138974;-59
2024/04/13 10:38:18;;;;;;;10.70;3.30;;;;;;;23.63;39.65;100120.39;449473;1233;139267;-58
2024/04/13 10:48:22;;;;;;;6.70;2.90;;;;;;;23.24;39.93;100121.05;449505;1234;138680;-52
2024/04/13 10:58:31;;;;;;;7.00;4.20;;;;;;;23.01;39.89;100116.77;449842;1237;138280;-52
2024/04/13 11:08:35;;;;;;;4.60;3.10;;;;;;;22.67;40.82;100112.90;448887;1237;138662;-54
2024/04/13 11:18:38;;;;;;;7.80;2.90;;;;;;;22.66;40.71;100105.30;449924;1233;138965;-55
2024/04/13 11:28:42;;;;;;;17.00;4.00;;;;;;;23.13;40.29;100085.06;450051;1237;139043;-54
2024/04/13 11:38:48;;;;;;;11.20;3.30;;;;;;;23.35;39.70;100084.45;449544;1237;139037;-53
2024/04/13 11:48:54;;;;;;;4.30;3.20;;;;;;;23.12;39.63;100086.43;448421;1234;138609;-53
2024/04/13 11:59:02;;;;;;;5.10;2.50;;;;;;;22.65;39.64;100083.80;448895;1235;138591;-53
2024/04/13 12:09:06;;;;;;;3.20;2.20;;;;;;;22.10;38.94;100084.73;450310;1237;138694;-52
2024/04/13 12:19:12;;;;;;;7.10;1.90;;;;;;;21.75;39.16;100078.96;449800;1237;138917;-59
2024/04/13 12:29:16;;;;;;;3.50;2.70;;;;;;;21.62;39.63;100065.61;462329;1233;138916;-58
2024/04/13 12:39:22;;;;;;;4.80;2.20;;;;;;;21.39;39.54;100056.94;462434;1235;138844;-58
2024/04/13 12:49:25;;;;;;;5.80;1.80;;;;;;;21.21;40.06;100041.48;462421;1233;138968;-57
2024/04/13 12:59:29;;;;;;;5.70;1.50;;;;;;;21.23;39.45;100038.23;460549;1233;138306;-67
2024/04/13 13:09:32;;;;;;;8.90;1.80;;;;;;;21.36;39.43;100035.54;450862;1237;138738;-60
2024/04/13 13:19:36;;;;;;;2.80;1.70;;;;;;;21.39;38.83;100038.55;462395;1237;138205;-72
2024/04/13 13:29:39;;;;;;;9.00;1.60;;;;;;;21.61;38.74;100028.91;458478;1233;5137295;-59
2024/04/13 13:39:43;;;;;;;8.00;3.50;;;;;;;21.65;39.01;100018.29;462401;1235;138384;-59
2024/04/13 13:49:48;;;;;;;3.50;1.40;;;;;;;21.70;39.17;100011.91;462343;1235;138998;-58
2024/04/13 13:59:51;;;;;;;5.30;1.30;;;;;;;21.84;39.30;100003.91;461517;1237;139270;-62
2024/04/13 14:09:55;;;;;;;4.90;2.40;;;;;;;21.96;39.39;100004.61;449493;1237;139160;-62
2024/04/13 14:19:58;;;;;;;9.80;1.90;;;;;;;21.76;39.67;100006.83;458581;1234;138744;-62
2024/04/13 14:30:06;;;;;;;3.20;1.80;;;;;;;21.48;40.30;99999.69;450410;1238;138839;-55
2024/04/13 14:40:11;;;;;;;4.20;1.30;;;;;;;21.62;41.08;99990.31;462388;1234;139772;-66
2024/04/13 14:50:15;;;;;;;9.10;1.70;;;;;;;21.52;40.65;99984.63;462310;1235;138548;-66
2024/04/13 15:00:18;;;;;;;2.80;1.30;;;;;;;21.31;41.01;99975.48;462309;1235;138288;-68
2024/04/13 15:10:22;;;;;;;5.90;1.90;;;;;;;21.21;41.60;99968.38;457237;1237;138558;-68
2024/04/13 15:20:25;;;;;;;7.30;1.90;;;;;;;21.23;42.16;99972.36;450714;1237;138765;-68
2024/04/13 15:30:29;;;;;;;4.60;1.50;;;;;;;21.23;41.85;99961.41;462461;1234;138738;-56
2024/04/13 15:40:32;;;;;;;3.10;2.10;;;;;;;21.07;42.11;99963.50;462465;1235;139286;-57
2024/04/13 15:50:37;;;;;;;4.30;1.40;;;;;;;20.94;42.67;99954.48;462599;1235;138584;-57
2024/04/13 16:00:41;;;;;;;6.30;1.90;;;;;;;20.78;42.89;99950.77;457142;1237;138462;-56
2024/04/13 16:10:45;;;;;;;4.70;1.50;;;;;;;20.43;43.15;99935.34;449134;1237;139292;-57
2024/04/13 16:20:48;;;;;;;2.00;1.60;;;;;;;19.95;43.25;99945.46;450707;1235;138964;-58
2024/04/13 16:30:54;;;;;;;4.00;1.00;;;;;;;19.61;43.67;99937.52;449273;1237;138158;-61
2024/04/13 16:40:58;;;;;;;7.10;2.50;;;;;;;19.37;44.24;99939.77;450033;1238;138872;-59
2024/04/13 16:51:03;;;;;;;3.80;2.50;;;;;;;19.07;44.91;99939.71;449593;1237;139741;-58
2024/04/13 17:01:06;;;;;;;3.60;1.70;;;;;;;18.70;45.65;99938.16;449965;1237;138759;-62
2024/04/13 17:11:10;;;;;;;2.40;1.80;;;;;;;18.26;46.71;99924.43;450076;1235;137153;-64
2024/04/13 17:21:13;;;;;;;7.90;3.40;;;;;;;17.89;47.80;99914.95;449430;1237;139204;-60
2024/04/13 17:31:16;;;;;;;13.70;3.30;;;;;;;17.50;48.94;99920.70;448574;1237;138851;-64
2024/04/13 17:41:20;;;;;;;7.20;3.60;;;;;;;17.12;50.34;99922.39;448675;1237;138437;-63
2024/04/13 17:51:25;;;;;;;7.90;3.80;;;;;;;16.73;51.48;99925.85;448333;1237;138373;-58
2024/04/13 18:01:29;;;;;;;4.80;2.40;;;;;;;16.38;52.64;99918.86;448733;1237;138249;-58
2024/04/13 18:11:35;;;;;;;17.90;9.50;;;;;;;16.06;53.81;99924.48;450099;1237;138399;-57
2024/04/13 18:21:41;;;;;;;22.90;10.70;;;;;;;15.74;54.71;99926.05;449959;1237;138822;-58
2024/04/13 18:31:45;;;;;;;51.90;35.80;;;;;;;15.50;55.94;99921.83;449928;1236;139222;-59
2024/04/13 18:41:48;;;;;;;18.60;11.50;;;;;;;15.25;57.10;99927.67;450749;1237;138430;-58
2024/04/13 18:51:51;;;;;;;11.20;7.80;;;;;;;14.96;58.07;99911.00;450321;1237;139022;-56
2024/04/13 19:01:55;;;;;;;11.60;7.70;;;;;;;14.67;59.18;99900.86;449519;1235;138453;-53
2024/04/13 19:11:58;;;;;;;13.60;8.30;;;;;;;14.39;60.31;99888.30;449193;1235;138446;-53
2024/04/13 19:22:02;;;;;;;24.80;9.20;;;;;;;14.07;61.43;99889.11;449550;1235;138921;-53
2024/04/13 19:32:07;;;;;;;14.70;8.90;;;;;;;13.79;62.66;99882.52;451709;1235;141431;-55
2024/04/13 19:42:10;;;;;;;21.00;10.90;;;;;;;13.55;63.60;99885.79;450091;1237;139636;-53
2024/04/13 19:52:14;;;;;;;18.10;9.80;;;;;;;13.39;64.54;99880.36;450635;1235;140347;-54
2024/04/13 20:02:17;;;;;;;19.50;11.70;;;;;;;13.20;65.44;99868.91;449749;1235;139147;-62
2024/04/13 20:12:20;;;;;;;16.60;8.10;;;;;;;12.96;66.40;99862.98;451157;1237;139945;-63
2024/04/13 20:22:26;;;;;;;16.70;12.20;;;;;;;12.76;67.26;99852.26;449850;1235;139034;-62
2024/04/13 20:32:30;;;;;;;21.00;15.50;;;;;;;12.59;68.15;99854.14;449160;1237;139188;-53
2024/04/13 20:42:36;;;;;;;13.10;9.80;;;;;;;12.45;68.93;99836.41;449159;1237;140018;-54
2024/04/13 20:52:40;;;;;;;11.50;8.70;;;;;;;12.33;69.85;99828.12;449077;1236;140080;-53
2024/04/13 21:03:00;;;;;;;17.30;9.70;;;;;;;12.28;71.03;99815.45;448565;1236;138917;-53
2024/04/13 21:13:06;;;;;;;13.30;9.40;;;;;;;12.22;71.78;99808.82;449079;1233;139108;-55
2024/04/13 21:23:09;;;;;;;10.00;7.80;;;;;;;12.14;72.30;99796.77;450680;1237;139577;-53
2024/04/13 21:33:13;;;;;;;10.40;8.60;;;;;;;12.04;72.93;99790.38;449803;1238;140720;-53
2024/04/13 21:43:17;;;;;;;13.10;8.70;;;;;;;11.96;73.56;99780.54;450055;1237;139305;-54
2024/04/13 21:53:21;;;;;;;9.70;7.40;;;;;;;11.90;74.14;99780.23;449247;1235;139506;-53
2024/04/13 22:03:25;;;;;;;10.20;7.70;;;;;;;11.84;74.76;99769.77;450081;1237;139425;-53
2024/04/13 22:13:28;;;;;;;16.20;7.10;;;;;;;11.84;75.27;99759.25;449189;1237;139343;-51
2024/04/13 22:23:32;;;;;;;11.80;6.30;;;;;;;11.82;75.51;99747.98;449426;1238;140804;-54
2024/04/13 22:33:35;;;;;;;10.50;6.30;;;;;;;11.79;75.91;99743.95;449565;1237;140771;-54
2024/04/13 22:43:38;;;;;;;7.60;6.30;;;;;;;11.77;76.26;99737.93;448971;1238;139718;-54
2024/04/13 22:53:44;;;;;;;8.40;6.20;;;;;;;11.69;76.63;99720.38;450879;1237;139490;-54
2024/04/13 23:03:47;;;;;;;11.20;6.20;;;;;;;11.65;76.98;99704.72;451557;1236;139386;-55
2024/04/13 23:13:51;;;;;;;6.40;5.70;;;;;;;11.59;77.30;99694.56;449382;1237;139040;-57
2024/04/13 23:23:55;;;;;;;7.80;6.30;;;;;;;11.58;77.82;99687.09;448831;1237;139572;-57
2024/04/13 23:33:59;;;;;;;7.50;5.40;;;;;;;11.49;77.96;99674.16;449880;1237;139376;-56
2024/04/13 23:44:08;;;;;;;9.30;6.30;;;;;;;11.44;78.35;99670.48;449942;1235;138185;-57
2024/04/13 23:54:11;;;;;;;6.50;5.70;;;;;;;11.41;78.72;99654.59;449850;1237;140022;-58
